sensor_id;sensor_type;location;lat;lon;timestamp;P1;durP1;ratioP1;P2;durP2;ratioP2
34832;SDS011;55941;50.800;4.342;2023-01-15T00:03:55;22.95;;;3.22;;
34832;SDS011;55941;50.800;4.342;2023-01-15T00:06:23;12.98;;;2.33;;
34832;SDS011;55941;50.800;4.342;2023-01-15T00:08:50;16.50;;;2.50;;
34832;SDS011;55941;50.800;4.342;2023-01-15T00:11:17;15.27;;;1.75;;
34832;SDS011;55941;50.800;4.342;2023-01-15T00:13:43;18.30;;;2.45;;
34832;SDS011;55941;50.800;4.342;2023-01-15T00:16:14;14.35;;;2.72;;
34832;SDS011;55941;50.800;4.342;2023-01-15T00:18:41;18.35;;;2.20;;
34832;SDS011;55941;50.800;4.342;2023-01-15T00:21:08;18.55;;;2.67;;
34832;SDS011;55941;50.800;4.342;2023-01-15T00:23:35;18.40;;;3.08;;
34832;SDS011;55941;50.800;4.342;2023-01-15T00:26:20;19.85;;;3.28;;
34832;SDS011;55941;50.800;4.342;2023-01-15T00:29:09;18.00;;;2.63;;
34832;SDS011;55941;50.800;4.342;2023-01-15T00:31:35;25.00;;;3.05;;
34832;SDS011;55941;50.800;4.342;2023-01-15T00:34:01;19.17;;;3.85;;
34832;SDS011;55941;50.800;4.342;2023-01-15T00:36:27;16.50;;;1.98;;
34832;SDS011;55941;50.800;4.342;2023-01-15T00:38:52;16.08;;;2.45;;
34832;SDS011;55941;50.800;4.342;2023-01-15T00:41:18;13.40;;;2.10;;
34832;SDS011;55941;50.800;4.342;2023-01-15T00:43:44;18.83;;;2.97;;
34832;SDS011;55941;50.800;4.342;2023-01-15T00:46:09;15.93;;;2.25;;
34832;SDS011;55941;50.800;4.342;2023-01-15T00:48:35;16.80;;;3.35;;
34832;SDS011;55941;50.800;4.342;2023-01-15T00:51:01;13.38;;;2.10;;
34832;SDS011;55941;50.800;4.342;2023-01-15T00:53:28;19.48;;;3.22;;
34832;SDS011;55941;50.800;4.342;2023-01-15T00:55:55;18.55;;;2.47;;
34832;SDS011;55941;50.800;4.342;2023-01-15T00:58:21;13.48;;;2.28;;
34832;SDS011;55941;50.800;4.342;2023-01-15T01:00:51;20.45;;;3.22;;
34832;SDS011;55941;50.800;4.342;2023-01-15T01:03:19;17.60;;;2.80;;
34832;SDS011;55941;50.800;4.342;2023-01-15T01:05:45;20.27;;;2.85;;
34832;SDS011;55941;50.800;4.342;2023-01-15T01:08:10;19.70;;;2.92;;
34832;SDS011;55941;50.800;4.342;2023-01-15T01:10:38;18.45;;;3.05;;
34832;SDS011;55941;50.800;4.342;2023-01-15T01:13:04;18.75;;;2.83;;
34832;SDS011;55941;50.800;4.342;2023-01-15T01:15:33;13.95;;;2.33;;
34832;SDS011;55941;50.800;4.342;2023-01-15T01:18:00;16.92;;;2.50;;
34832;SDS011;55941;50.800;4.342;2023-01-15T01:20:26;12.93;;;2.08;;
34832;SDS011;55941;50.800;4.342;2023-01-15T01:22:52;18.08;;;2.95;;
34832;SDS011;55941;50.800;4.342;2023-01-15T01:25:18;17.75;;;2.80;;
34832;SDS011;55941;50.800;4.342;2023-01-15T01:27:44;25.23;;;2.92;;
34832;SDS011;55941;50.800;4.342;2023-01-15T01:30:11;21.48;;;2.72;;
34832;SDS011;55941;50.800;4.342;2023-01-15T01:32:37;17.88;;;2.20;;
34832;SDS011;55941;50.800;4.342;2023-01-15T01:35:03;15.77;;;2.28;;
34832;SDS011;55941;50.800;4.342;2023-01-15T01:37:29;20.33;;;2.75;;
34832;SDS011;55941;50.800;4.342;2023-01-15T01:39:55;17.08;;;2.30;;
34832;SDS011;55941;50.800;4.342;2023-01-15T01:42:21;16.10;;;2.10;;
34832;SDS011;55941;50.800;4.342;2023-01-15T01:47:17;13.98;;;2.33;;
34832;SDS011;55941;50.800;4.342;2023-01-15T01:49:47;18.83;;;2.33;;
34832;SDS011;55941;50.800;4.342;2023-01-15T01:52:17;13.95;;;2.22;;
34832;SDS011;55941;50.800;4.342;2023-01-15T01:54:49;23.25;;;2.72;;
34832;SDS011;55941;50.800;4.342;2023-01-15T01:57:16;21.98;;;2.70;;
34832;SDS011;55941;50.800;4.342;2023-01-15T01:59:44;16.63;;;2.47;;
34832;SDS011;55941;50.800;4.342;2023-01-15T02:02:10;15.13;;;2.03;;
34832;SDS011;55941;50.800;4.342;2023-01-15T02:04:36;13.60;;;2.47;;
34832;SDS011;55941;50.800;4.342;2023-01-15T02:07:04;15.85;;;2.55;;
34832;SDS011;55941;50.800;4.342;2023-01-15T02:09:30;14.70;;;2.50;;
34832;SDS011;55941;50.800;4.342;2023-01-15T02:12:01;12.43;;;1.95;;
34832;SDS011;55941;50.800;4.342;2023-01-15T02:14:41;18.00;;;2.08;;
34832;SDS011;55941;50.800;4.342;2023-01-15T02:17:53;20.05;;;2.30;;
34832;SDS011;55941;50.800;4.342;2023-01-15T02:20:24;15.68;;;1.55;;
34832;SDS011;55941;50.800;4.342;2023-01-15T02:23:05;11.60;;;1.97;;
34832;SDS011;55941;50.800;4.342;2023-01-15T02:28:51;14.02;;;1.90;;
34832;SDS011;55941;50.800;4.342;2023-01-15T02:33:55;21.13;;;2.97;;
34832;SDS011;55941;50.800;4.342;2023-01-15T02:38:53;18.77;;;2.08;;
34832;SDS011;55941;50.800;4.342;2023-01-15T02:41:27;14.27;;;2.38;;
34832;SDS011;55941;50.800;4.342;2023-01-15T02:43:57;17.40;;;2.20;;
34832;SDS011;55941;50.800;4.342;2023-01-15T02:46:27;16.05;;;2.00;;
34832;SDS011;55941;50.800;4.342;2023-01-15T02:48:56;15.02;;;2.08;;
34832;SDS011;55941;50.800;4.342;2023-01-15T02:51:24;18.23;;;2.10;;
34832;SDS011;55941;50.800;4.342;2023-01-15T02:53:57;11.40;;;1.80;;
34832;SDS011;55941;50.800;4.342;2023-01-15T02:56:27;13.65;;;2.10;;
34832;SDS011;55941;50.800;4.342;2023-01-15T02:58:58;17.13;;;2.13;;
34832;SDS011;55941;50.800;4.342;2023-01-15T03:04:11;17.10;;;2.00;;
34832;SDS011;55941;50.800;4.342;2023-01-15T03:07:02;14.70;;;1.60;;
34832;SDS011;55941;50.800;4.342;2023-01-15T03:09:29;21.52;;;2.13;;
34832;SDS011;55941;50.800;4.342;2023-01-15T03:14:35;15.48;;;1.88;;
34832;SDS011;55941;50.800;4.342;2023-01-15T03:17:21;23.08;;;2.47;;
34832;SDS011;55941;50.800;4.342;2023-01-15T03:19:53;17.45;;;2.17;;
34832;SDS011;55941;50.800;4.342;2023-01-15T03:24:54;10.23;;;1.45;;
34832;SDS011;55941;50.800;4.342;2023-01-15T03:27:26;14.27;;;2.30;;
34832;SDS011;55941;50.800;4.342;2023-01-15T03:32:47;11.85;;;1.73;;
34832;SDS011;55941;50.800;4.342;2023-01-15T03:38:24;8.73;;;1.65;;
34832;SDS011;55941;50.800;4.342;2023-01-15T03:41:05;24.05;;;2.38;;
34832;SDS011;55941;50.800;4.342;2023-01-15T03:46:25;13.93;;;2.22;;
34832;SDS011;55941;50.800;4.342;2023-01-15T03:49:15;18.08;;;2.20;;
34832;SDS011;55941;50.800;4.342;2023-01-15T03:55:09;16.45;;;1.80;;
34832;SDS011;55941;50.800;4.342;2023-01-15T03:58:20;11.70;;;2.05;;
34832;SDS011;55941;50.800;4.342;2023-01-15T04:00:31;11.73;;;1.73;;
34832;SDS011;55941;50.800;4.342;2023-01-15T04:03:01;19.40;;;2.00;;
34832;SDS011;55941;50.800;4.342;2023-01-15T04:05:28;14.88;;;1.83;;
34832;SDS011;55941;50.800;4.342;2023-01-15T04:07:55;20.08;;;1.92;;
34832;SDS011;55941;50.800;4.342;2023-01-15T04:10:24;17.20;;;2.03;;
34832;SDS011;55941;50.800;4.342;2023-01-15T04:12:49;10.68;;;1.65;;
34832;SDS011;55941;50.800;4.342;2023-01-15T04:15:15;11.20;;;1.67;;
34832;SDS011;55941;50.800;4.342;2023-01-15T04:17:41;13.35;;;1.60;;
34832;SDS011;55941;50.800;4.342;2023-01-15T04:20:07;15.98;;;1.60;;
34832;SDS011;55941;50.800;4.342;2023-01-15T04:22:34;14.02;;;1.60;;
34832;SDS011;55941;50.800;4.342;2023-01-15T04:25:01;6.20;;;1.20;;
34832;SDS011;55941;50.800;4.342;2023-01-15T04:27:28;16.83;;;1.50;;
34832;SDS011;55941;50.800;4.342;2023-01-15T04:29:53;11.10;;;1.38;;
34832;SDS011;55941;50.800;4.342;2023-01-15T04:32:19;16.08;;;1.70;;
34832;SDS011;55941;50.800;4.342;2023-01-15T04:34:45;11.30;;;2.03;;
34832;SDS011;55941;50.800;4.342;2023-01-15T04:37:10;14.55;;;2.00;;
34832;SDS011;55941;50.800;4.342;2023-01-15T04:39:36;8.48;;;1.65;;
34832;SDS011;55941;50.800;4.342;2023-01-15T04:42:02;15.52;;;1.65;;
34832;SDS011;55941;50.800;4.342;2023-01-15T04:44:46;13.98;;;1.42;;
34832;SDS011;55941;50.800;4.342;2023-01-15T04:47:11;13.68;;;1.40;;
34832;SDS011;55941;50.800;4.342;2023-01-15T04:49:37;12.35;;;1.70;;
34832;SDS011;55941;50.800;4.342;2023-01-15T04:52:03;13.40;;;1.63;;
34832;SDS011;55941;50.800;4.342;2023-01-15T04:54:29;10.45;;;1.88;;
34832;SDS011;55941;50.800;4.342;2023-01-15T04:56:56;13.68;;;1.50;;
34832;SDS011;55941;50.800;4.342;2023-01-15T04:59:22;7.68;;;1.20;;
34832;SDS011;55941;50.800;4.342;2023-01-15T05:01:50;11.38;;;1.55;;
34832;SDS011;55941;50.800;4.342;2023-01-15T05:04:16;15.75;;;1.65;;
34832;SDS011;55941;50.800;4.342;2023-01-15T05:06:42;14.15;;;1.73;;
34832;SDS011;55941;50.800;4.342;2023-01-15T05:09:07;13.07;;;1.55;;
34832;SDS011;55941;50.800;4.342;2023-01-15T05:11:34;13.05;;;1.55;;
34832;SDS011;55941;50.800;4.342;2023-01-15T05:14:01;16.25;;;1.58;;
34832;SDS011;55941;50.800;4.342;2023-01-15T05:16:28;14.25;;;2.00;;
34832;SDS011;55941;50.800;4.342;2023-01-15T05:18:57;14.55;;;1.92;;
34832;SDS011;55941;50.800;4.342;2023-01-15T05:21:27;8.48;;;1.60;;
34832;SDS011;55941;50.800;4.342;2023-01-15T05:23:58;8.93;;;1.25;;
34832;SDS011;55941;50.800;4.342;2023-01-15T05:26:26;8.65;;;1.75;;
34832;SDS011;55941;50.800;4.342;2023-01-15T05:28:53;10.13;;;1.35;;
34832;SDS011;55941;50.800;4.342;2023-01-15T05:31:20;11.60;;;1.48;;
34832;SDS011;55941;50.800;4.342;2023-01-15T05:33:46;10.45;;;1.27;;
34832;SDS011;55941;50.800;4.342;2023-01-15T05:36:15;12.20;;;1.20;;
34832;SDS011;55941;50.800;4.342;2023-01-15T05:38:42;8.50;;;0.82;;
34832;SDS011;55941;50.800;4.342;2023-01-15T05:41:11;10.75;;;1.40;;
34832;SDS011;55941;50.800;4.342;2023-01-15T05:43:59;4.22;;;0.98;;
34832;SDS011;55941;50.800;4.342;2023-01-15T05:46:27;6.07;;;1.10;;
34832;SDS011;55941;50.800;4.342;2023-01-15T05:48:53;9.75;;;1.92;;
34832;SDS011;55941;50.800;4.342;2023-01-15T05:51:18;6.32;;;1.02;;
34832;SDS011;55941;50.800;4.342;2023-01-15T05:53:44;8.00;;;0.88;;
34832;SDS011;55941;50.800;4.342;2023-01-15T05:56:10;9.50;;;1.23;;
34832;SDS011;55941;50.800;4.342;2023-01-15T05:58:36;13.82;;;1.30;;
34832;SDS011;55941;50.800;4.342;2023-01-15T06:01:05;8.73;;;1.20;;
34832;SDS011;55941;50.800;4.342;2023-01-15T06:03:32;10.30;;;1.23;;
34832;SDS011;55941;50.800;4.342;2023-01-15T06:05:59;14.38;;;1.60;;
34832;SDS011;55941;50.800;4.342;2023-01-15T06:08:25;12.63;;;1.58;;
34832;SDS011;55941;50.800;4.342;2023-01-15T06:10:51;5.07;;;0.70;;
34832;SDS011;55941;50.800;4.342;2023-01-15T06:13:16;4.40;;;0.63;;
34832;SDS011;55941;50.800;4.342;2023-01-15T06:15:42;4.68;;;0.30;;
34832;SDS011;55941;50.800;4.342;2023-01-15T06:18:10;4.68;;;0.68;;
34832;SDS011;55941;50.800;4.342;2023-01-15T06:20:36;5.30;;;0.40;;
34832;SDS011;55941;50.800;4.342;2023-01-15T06:23:02;13.20;;;1.02;;
34832;SDS011;55941;50.800;4.342;2023-01-15T06:25:28;6.53;;;1.15;;
34832;SDS011;55941;50.800;4.342;2023-01-15T06:27:54;10.10;;;1.40;;
34832;SDS011;55941;50.800;4.342;2023-01-15T06:30:19;7.05;;;1.15;;
34832;SDS011;55941;50.800;4.342;2023-01-15T06:32:45;9.82;;;1.27;;
34832;SDS011;55941;50.800;4.342;2023-01-15T06:35:11;11.90;;;1.55;;
34832;SDS011;55941;50.800;4.342;2023-01-15T06:37:38;12.80;;;1.30;;
34832;SDS011;55941;50.800;4.342;2023-01-15T06:40:04;10.02;;;1.20;;
34832;SDS011;55941;50.800;4.342;2023-01-15T06:42:30;14.82;;;1.70;;
34832;SDS011;55941;50.800;4.342;2023-01-15T06:45:14;19.98;;;2.28;;
34832;SDS011;55941;50.800;4.342;2023-01-15T06:47:58;10.32;;;1.88;;
34832;SDS011;55941;50.800;4.342;2023-01-15T06:50:24;11.52;;;1.25;;
34832;SDS011;55941;50.800;4.342;2023-01-15T06:52:50;14.10;;;1.42;;
34832;SDS011;55941;50.800;4.342;2023-01-15T06:55:16;14.93;;;1.80;;
34832;SDS011;55941;50.800;4.342;2023-01-15T06:57:42;8.95;;;1.50;;
34832;SDS011;55941;50.800;4.342;2023-01-15T07:00:09;19.08;;;1.88;;
34832;SDS011;55941;50.800;4.342;2023-01-15T07:02:36;15.38;;;1.70;;
34832;SDS011;55941;50.800;4.342;2023-01-15T07:05:05;16.30;;;1.48;;
34832;SDS011;55941;50.800;4.342;2023-01-15T07:07:31;12.98;;;1.45;;
34832;SDS011;55941;50.800;4.342;2023-01-15T07:09:57;13.60;;;1.30;;
34832;SDS011;55941;50.800;4.342;2023-01-15T07:12:22;8.20;;;2.08;;
34832;SDS011;55941;50.800;4.342;2023-01-15T07:14:49;12.77;;;2.20;;
34832;SDS011;55941;50.800;4.342;2023-01-15T07:17:15;11.15;;;1.77;;
34832;SDS011;55941;50.800;4.342;2023-01-15T07:19:41;12.55;;;1.65;;
34832;SDS011;55941;50.800;4.342;2023-01-15T07:22:07;20.38;;;2.33;;
34832;SDS011;55941;50.800;4.342;2023-01-15T07:24:33;9.55;;;1.58;;
34832;SDS011;55941;50.800;4.342;2023-01-15T07:26:59;13.85;;;1.75;;
34832;SDS011;55941;50.800;4.342;2023-01-15T07:29:25;15.30;;;2.05;;
34832;SDS011;55941;50.800;4.342;2023-01-15T07:31:52;17.92;;;2.10;;
34832;SDS011;55941;50.800;4.342;2023-01-15T07:34:17;20.00;;;2.15;;
34832;SDS011;55941;50.800;4.342;2023-01-15T07:36:43;14.68;;;2.03;;
34832;SDS011;55941;50.800;4.342;2023-01-15T07:39:10;14.50;;;2.08;;
34832;SDS011;55941;50.800;4.342;2023-01-15T07:41:36;20.25;;;2.03;;
34832;SDS011;55941;50.800;4.342;2023-01-15T07:44:21;10.02;;;1.70;;
34832;SDS011;55941;50.800;4.342;2023-01-15T07:47:18;16.80;;;1.88;;
34832;SDS011;55941;50.800;4.342;2023-01-15T07:50:05;15.05;;;1.95;;
34832;SDS011;55941;50.800;4.342;2023-01-15T07:52:33;16.85;;;1.77;;
34832;SDS011;55941;50.800;4.342;2023-01-15T07:54:59;14.60;;;1.90;;
34832;SDS011;55941;50.800;4.342;2023-01-15T07:57:27;9.80;;;1.73;;
34832;SDS011;55941;50.800;4.342;2023-01-15T07:59:53;14.40;;;1.92;;
34832;SDS011;55941;50.800;4.342;2023-01-15T08:02:19;18.98;;;2.35;;
34832;SDS011;55941;50.800;4.342;2023-01-15T08:04:45;20.25;;;1.92;;
34832;SDS011;55941;50.800;4.342;2023-01-15T08:07:12;12.43;;;2.25;;
34832;SDS011;55941;50.800;4.342;2023-01-15T08:09:40;13.82;;;1.75;;
34832;SDS011;55941;50.800;4.342;2023-01-15T08:12:06;17.10;;;2.30;;
34832;SDS011;55941;50.800;4.342;2023-01-15T08:14:51;20.67;;;1.77;;
34832;SDS011;55941;50.800;4.342;2023-01-15T08:17:35;8.95;;;1.75;;
34832;SDS011;55941;50.800;4.342;2023-01-15T08:20:02;17.77;;;2.22;;
34832;SDS011;55941;50.800;4.342;2023-01-15T08:22:31;15.77;;;2.03;;
34832;SDS011;55941;50.800;4.342;2023-01-15T08:24:59;20.60;;;1.92;;
34832;SDS011;55941;50.800;4.342;2023-01-15T08:27:25;15.98;;;1.70;;
34832;SDS011;55941;50.800;4.342;2023-01-15T08:29:54;17.95;;;2.38;;
34832;SDS011;55941;50.800;4.342;2023-01-15T08:32:21;25.60;;;2.85;;
34832;SDS011;55941;50.800;4.342;2023-01-15T08:34:50;12.27;;;1.73;;
34832;SDS011;55941;50.800;4.342;2023-01-15T08:37:17;17.58;;;1.95;;
34832;SDS011;55941;50.800;4.342;2023-01-15T08:39:43;12.43;;;2.25;;
34832;SDS011;55941;50.800;4.342;2023-01-15T08:42:09;20.80;;;2.22;;
34832;SDS011;55941;50.800;4.342;2023-01-15T08:44:35;12.48;;;1.92;;
34832;SDS011;55941;50.800;4.342;2023-01-15T08:47:08;19.67;;;2.13;;
34832;SDS011;55941;50.800;4.342;2023-01-15T08:49:34;15.43;;;2.40;;
34832;SDS011;55941;50.800;4.342;2023-01-15T08:52:00;10.48;;;1.50;;
34832;SDS011;55941;50.800;4.342;2023-01-15T08:54:26;13.93;;;1.85;;
34832;SDS011;55941;50.800;4.342;2023-01-15T08:56:54;14.32;;;1.83;;
34832;SDS011;55941;50.800;4.342;2023-01-15T08:59:22;14.40;;;1.88;;
34832;SDS011;55941;50.800;4.342;2023-01-15T09:01:47;18.95;;;2.33;;
34832;SDS011;55941;50.800;4.342;2023-01-15T09:04:14;12.10;;;1.98;;
34832;SDS011;55941;50.800;4.342;2023-01-15T09:06:41;14.63;;;1.77;;
34832;SDS011;55941;50.800;4.342;2023-01-15T09:09:07;14.00;;;1.83;;
34832;SDS011;55941;50.800;4.342;2023-01-15T09:11:34;9.98;;;1.65;;
34832;SDS011;55941;50.800;4.342;2023-01-15T09:14:00;10.27;;;1.60;;
34832;SDS011;55941;50.800;4.342;2023-01-15T09:16:26;12.50;;;2.13;;
34832;SDS011;55941;50.800;4.342;2023-01-15T09:18:52;9.50;;;1.70;;
34832;SDS011;55941;50.800;4.342;2023-01-15T09:21:18;13.50;;;1.55;;
34832;SDS011;55941;50.800;4.342;2023-01-15T09:23:44;13.80;;;1.75;;
34832;SDS011;55941;50.800;4.342;2023-01-15T09:29:05;12.40;;;1.35;;
34832;SDS011;55941;50.800;4.342;2023-01-15T09:31:33;9.85;;;1.95;;
34832;SDS011;55941;50.800;4.342;2023-01-15T09:33:59;11.73;;;1.75;;
34832;SDS011;55941;50.800;4.342;2023-01-15T09:36:29;16.05;;;1.60;;
34832;SDS011;55941;50.800;4.342;2023-01-15T09:38:56;7.85;;;0.95;;
34832;SDS011;55941;50.800;4.342;2023-01-15T09:41:23;10.52;;;1.60;;
34832;SDS011;55941;50.800;4.342;2023-01-15T09:44:27;12.23;;;1.55;;
34832;SDS011;55941;50.800;4.342;2023-01-15T09:47:17;6.93;;;1.40;;
34832;SDS011;55941;50.800;4.342;2023-01-15T09:55:27;6.75;;;1.48;;
34832;SDS011;55941;50.800;4.342;2023-01-15T09:57:59;8.05;;;1.48;;
34832;SDS011;55941;50.800;4.342;2023-01-15T10:00:32;5.75;;;1.27;;
34832;SDS011;55941;50.800;4.342;2023-01-15T10:08:43;6.13;;;1.27;;
34832;SDS011;55941;50.800;4.342;2023-01-15T10:13:45;13.48;;;1.77;;
34832;SDS011;55941;50.800;4.342;2023-01-15T10:16:18;8.88;;;1.50;;
34832;SDS011;55941;50.800;4.342;2023-01-15T10:18:49;6.25;;;1.13;;
34832;SDS011;55941;50.800;4.342;2023-01-15T10:24:20;10.80;;;1.67;;
34832;SDS011;55941;50.800;4.342;2023-01-15T10:27:01;9.75;;;1.38;;
34832;SDS011;55941;50.800;4.342;2023-01-15T10:32:46;9.90;;;2.03;;
34832;SDS011;55941;50.800;4.342;2023-01-15T10:38:15;9.20;;;1.42;;
34832;SDS011;55941;50.800;4.342;2023-01-15T10:41:26;9.95;;;1.20;;
34832;SDS011;55941;50.800;4.342;2023-01-15T10:44:02;9.02;;;1.48;;
34832;SDS011;55941;50.800;4.342;2023-01-15T10:46:36;12.05;;;1.60;;
34832;SDS011;55941;50.800;4.342;2023-01-15T10:49:05;7.00;;;0.88;;
34832;SDS011;55941;50.800;4.342;2023-01-15T10:51:53;7.07;;;1.40;;
34832;SDS011;55941;50.800;4.342;2023-01-15T10:54:30;9.60;;;1.50;;
34832;SDS011;55941;50.800;4.342;2023-01-15T10:59:41;9.07;;;1.35;;
34832;SDS011;55941;50.800;4.342;2023-01-15T11:05:13;5.35;;;1.40;;
34832;SDS011;55941;50.800;4.342;2023-01-15T11:07:42;6.53;;;1.30;;
34832;SDS011;55941;50.800;4.342;2023-01-15T11:10:12;9.68;;;1.20;;
34832;SDS011;55941;50.800;4.342;2023-01-15T11:12:44;6.03;;;0.98;;
34832;SDS011;55941;50.800;4.342;2023-01-15T11:15:57;9.45;;;1.90;;
34832;SDS011;55941;50.800;4.342;2023-01-15T11:18:42;15.07;;;1.65;;
34832;SDS011;55941;50.800;4.342;2023-01-15T11:21:28;10.15;;;1.50;;
34832;SDS011;55941;50.800;4.342;2023-01-15T11:23:55;10.38;;;1.50;;
34832;SDS011;55941;50.800;4.342;2023-01-15T11:28:51;10.27;;;1.50;;
34832;SDS011;55941;50.800;4.342;2023-01-15T11:31:17;12.68;;;1.88;;
34832;SDS011;55941;50.800;4.342;2023-01-15T11:36:25;9.95;;;1.65;;
34832;SDS011;55941;50.800;4.342;2023-01-15T11:38:54;14.82;;;1.90;;
34832;SDS011;55941;50.800;4.342;2023-01-15T11:44:15;7.75;;;1.20;;
34832;SDS011;55941;50.800;4.342;2023-01-15T11:47:18;12.77;;;2.05;;
34832;SDS011;55941;50.800;4.342;2023-01-15T11:50:14;8.00;;;1.65;;
34832;SDS011;55941;50.800;4.342;2023-01-15T11:53:00;13.75;;;1.83;;
34832;SDS011;55941;50.800;4.342;2023-01-15T11:55:27;8.75;;;1.65;;
34832;SDS011;55941;50.800;4.342;2023-01-15T11:57:53;4.28;;;1.00;;
34832;SDS011;55941;50.800;4.342;2023-01-15T12:00:25;13.05;;;1.60;;
34832;SDS011;55941;50.800;4.342;2023-01-15T12:02:59;8.82;;;1.40;;
34832;SDS011;55941;50.800;4.342;2023-01-15T12:05:44;13.52;;;1.90;;
34832;SDS011;55941;50.800;4.342;2023-01-15T12:11:10;4.60;;;1.30;;
34832;SDS011;55941;50.800;4.342;2023-01-15T12:13:50;9.80;;;2.00;;
34832;SDS011;55941;50.800;4.342;2023-01-15T12:16:24;10.32;;;1.77;;
34832;SDS011;55941;50.800;4.342;2023-01-15T12:22:07;12.75;;;2.17;;
34832;SDS011;55941;50.800;4.342;2023-01-15T12:32:38;10.93;;;1.65;;
34832;SDS011;55941;50.800;4.342;2023-01-15T12:35:09;11.57;;;2.22;;
34832;SDS011;55941;50.800;4.342;2023-01-15T12:37:50;11.70;;;1.58;;
34832;SDS011;55941;50.800;4.342;2023-01-15T12:40:32;11.15;;;1.50;;
34832;SDS011;55941;50.800;4.342;2023-01-15T12:43:07;7.47;;;1.70;;
34832;SDS011;55941;50.800;4.342;2023-01-15T12:46:02;12.63;;;2.63;;
34832;SDS011;55941;50.800;4.342;2023-01-15T12:48:34;5.72;;;1.70;;
34832;SDS011;55941;50.800;4.342;2023-01-15T12:52:08;12.50;;;1.70;;
34832;SDS011;55941;50.800;4.342;2023-01-15T12:54:22;16.90;;;1.83;;
34832;SDS011;55941;50.800;4.342;2023-01-15T12:57:07;10.00;;;1.50;;
34832;SDS011;55941;50.800;4.342;2023-01-15T13:05:15;9.13;;;1.48;;
34832;SDS011;55941;50.800;4.342;2023-01-15T13:08:08;10.02;;;1.60;;
34832;SDS011;55941;50.800;4.342;2023-01-15T13:10:35;8.93;;;1.30;;
34832;SDS011;55941;50.800;4.342;2023-01-15T13:15:51;8.38;;;1.35;;
34832;SDS011;55941;50.800;4.342;2023-01-15T13:21:13;4.80;;;1.20;;
34832;SDS011;55941;50.800;4.342;2023-01-15T13:23:54;4.70;;;1.30;;
34832;SDS011;55941;50.800;4.342;2023-01-15T13:26:43;6.88;;;1.33;;
34832;SDS011;55941;50.800;4.342;2023-01-15T13:34:49;9.57;;;1.65;;
34832;SDS011;55941;50.800;4.342;2023-01-15T13:37:28;9.85;;;1.60;;
34832;SDS011;55941;50.800;4.342;2023-01-15T13:42:49;12.98;;;2.40;;
34832;SDS011;55941;50.800;4.342;2023-01-15T13:47:57;10.18;;;1.60;;
34832;SDS011;55941;50.800;4.342;2023-01-15T13:50:37;11.52;;;1.85;;
34832;SDS011;55941;50.800;4.342;2023-01-15T13:53:39;7.80;;;2.30;;
34832;SDS011;55941;50.800;4.342;2023-01-15T13:56:10;9.25;;;2.25;;
34832;SDS011;55941;50.800;4.342;2023-01-15T13:58:50;15.52;;;4.72;;
34832;SDS011;55941;50.800;4.342;2023-01-15T14:01:22;5.10;;;1.42;;
34832;SDS011;55941;50.800;4.342;2023-01-15T14:04:06;7.85;;;2.10;;
34832;SDS011;55941;50.800;4.342;2023-01-15T14:06:45;12.27;;;3.72;;
34832;SDS011;55941;50.800;4.342;2023-01-15T14:09:13;10.48;;;1.58;;
34832;SDS011;55941;50.800;4.342;2023-01-15T14:25:35;12.40;;;1.52;;
34832;SDS011;55941;50.800;4.342;2023-01-15T14:28:23;13.30;;;1.80;;
34832;SDS011;55941;50.800;4.342;2023-01-15T14:34:13;11.77;;;3.42;;
34832;SDS011;55941;50.800;4.342;2023-01-15T14:36:48;9.10;;;2.10;;
34832;SDS011;55941;50.800;4.342;2023-01-15T14:41:57;9.93;;;1.60;;
34832;SDS011;55941;50.800;4.342;2023-01-15T14:44:46;10.27;;;1.65;;
34832;SDS011;55941;50.800;4.342;2023-01-15T14:47:24;9.27;;;1.50;;
34832;SDS011;55941;50.800;4.342;2023-01-15T14:50:20;12.88;;;1.65;;
34832;SDS011;55941;50.800;4.342;2023-01-15T14:52:50;8.75;;;1.75;;
34832;SDS011;55941;50.800;4.342;2023-01-15T14:55:18;5.35;;;1.17;;
34832;SDS011;55941;50.800;4.342;2023-01-15T14:58:09;8.13;;;1.15;;
34832;SDS011;55941;50.800;4.342;2023-01-15T15:00:36;7.82;;;2.80;;
34832;SDS011;55941;50.800;4.342;2023-01-15T15:03:16;8.18;;;1.48;;
34832;SDS011;55941;50.800;4.342;2023-01-15T15:05:45;6.15;;;1.67;;
34832;SDS011;55941;50.800;4.342;2023-01-15T15:08:12;6.95;;;1.33;;
34832;SDS011;55941;50.800;4.342;2023-01-15T15:10:41;5.75;;;1.00;;
34832;SDS011;55941;50.800;4.342;2023-01-15T15:13:17;10.38;;;1.70;;
34832;SDS011;55941;50.800;4.342;2023-01-15T15:21:27;9.18;;;2.28;;
34832;SDS011;55941;50.800;4.342;2023-01-15T15:23:58;7.30;;;3.50;;
34832;SDS011;55941;50.800;4.342;2023-01-15T15:26:35;16.08;;;5.18;;
34832;SDS011;55941;50.800;4.342;2023-01-15T15:29:04;6.75;;;1.95;;
34832;SDS011;55941;50.800;4.342;2023-01-15T15:31:34;8.48;;;1.52;;
34832;SDS011;55941;50.800;4.342;2023-01-15T15:34:09;11.65;;;1.30;;
34832;SDS011;55941;50.800;4.342;2023-01-15T15:36:52;11.63;;;2.00;;
34832;SDS011;55941;50.800;4.342;2023-01-15T15:42:30;7.60;;;1.50;;
34832;SDS011;55941;50.800;4.342;2023-01-15T15:45:18;5.90;;;1.23;;
34832;SDS011;55941;50.800;4.342;2023-01-15T15:48:16;7.03;;;1.33;;
34832;SDS011;55941;50.800;4.342;2023-01-15T15:51:01;8.85;;;1.60;;
34832;SDS011;55941;50.800;4.342;2023-01-15T15:53:27;8.35;;;1.48;;
34832;SDS011;55941;50.800;4.342;2023-01-15T15:55:53;6.50;;;1.40;;
34832;SDS011;55941;50.800;4.342;2023-01-15T16:00:58;13.02;;;1.50;;
34832;SDS011;55941;50.800;4.342;2023-01-15T16:03:25;5.45;;;1.35;;
34832;SDS011;55941;50.800;4.342;2023-01-15T16:05:54;10.13;;;1.77;;
34832;SDS011;55941;50.800;4.342;2023-01-15T16:08:27;10.82;;;1.30;;
34832;SDS011;55941;50.800;4.342;2023-01-15T16:11:04;9.65;;;1.65;;
34832;SDS011;55941;50.800;4.342;2023-01-15T16:13:34;5.88;;;1.60;;
34832;SDS011;55941;50.800;4.342;2023-01-15T16:16:08;7.90;;;1.48;;
34832;SDS011;55941;50.800;4.342;2023-01-15T16:18:36;13.40;;;1.50;;
34832;SDS011;55941;50.800;4.342;2023-01-15T16:21:10;9.55;;;2.25;;
34832;SDS011;55941;50.800;4.342;2023-01-15T16:23:41;9.20;;;2.03;;
34832;SDS011;55941;50.800;4.342;2023-01-15T16:26:20;7.43;;;1.90;;
34832;SDS011;55941;50.800;4.342;2023-01-15T16:28:53;10.27;;;2.20;;
34832;SDS011;55941;50.800;4.342;2023-01-15T16:31:21;8.80;;;2.47;;
34832;SDS011;55941;50.800;4.342;2023-01-15T16:33:58;8.50;;;2.35;;
34832;SDS011;55941;50.800;4.342;2023-01-15T16:36:24;8.63;;;2.55;;
34832;SDS011;55941;50.800;4.342;2023-01-15T16:38:52;13.30;;;2.42;;
34832;SDS011;55941;50.800;4.342;2023-01-15T16:41:20;15.45;;;3.70;;
34832;SDS011;55941;50.800;4.342;2023-01-15T16:43:53;15.93;;;3.60;;
34832;SDS011;55941;50.800;4.342;2023-01-15T16:46:21;13.20;;;3.47;;
34832;SDS011;55941;50.800;4.342;2023-01-15T16:48:48;11.43;;;3.15;;
34832;SDS011;55941;50.800;4.342;2023-01-15T16:51:46;14.75;;;4.03;;
34832;SDS011;55941;50.800;4.342;2023-01-15T16:54:46;11.63;;;4.43;;
34832;SDS011;55941;50.800;4.342;2023-01-15T16:57:25;12.45;;;5.88;;
34832;SDS011;55941;50.800;4.342;2023-01-15T17:00:01;16.85;;;6.88;;
34832;SDS011;55941;50.800;4.342;2023-01-15T17:02:40;14.35;;;3.58;;
34832;SDS011;55941;50.800;4.342;2023-01-15T17:05:20;9.80;;;3.08;;
34832;SDS011;55941;50.800;4.342;2023-01-15T17:07:48;9.57;;;2.17;;
34832;SDS011;55941;50.800;4.342;2023-01-15T17:10:21;11.75;;;3.60;;
34832;SDS011;55941;50.800;4.342;2023-01-15T17:12:49;12.60;;;2.55;;
34832;SDS011;55941;50.800;4.342;2023-01-15T17:17:42;8.90;;;2.63;;
34832;SDS011;55941;50.800;4.342;2023-01-15T17:20:11;15.93;;;3.65;;
34832;SDS011;55941;50.800;4.342;2023-01-15T17:22:42;14.30;;;4.15;;
34832;SDS011;55941;50.800;4.342;2023-01-15T17:25:23;15.18;;;4.03;;
34832;SDS011;55941;50.800;4.342;2023-01-15T17:27:52;14.10;;;4.50;;